createdAt,value
2018-03-18T00:01:06.157Z,-2.00
2018-03-18T00:03:33.610Z,-2.00
2018-03-18T00:06:01.839Z,-2.00
2018-03-18T00:08:29.314Z,-2.00
2018-03-18T00:10:56.757Z,-1.90
2018-03-18T00:13:24.208Z,-1.90
2018-03-18T00:15:51.678Z,-1.90
2018-03-18T00:18:19.145Z,-1.90
2018-03-18T00:20:46.618Z,-1.80
2018-03-18T00:23:14.836Z,-1.80
2018-03-18T00:25:42.289Z,-1.80
2018-03-18T00:28:09.758Z,-1.80
2018-03-18T00:30:37.215Z,-1.90
2018-03-18T00:33:04.664Z,-1.90
2018-03-18T00:35:32.116Z,-1.90
2018-03-18T00:37:59.576Z,-1.80
2018-03-18T00:40:27.021Z,-1.80
2018-03-18T00:42:54.476Z,-1.80
2018-03-18T00:45:21.928Z,-1.80
2018-03-18T00:47:49.410Z,-1.80
2018-03-18T00:50:16.873Z,-1.90
2018-03-18T00:52:44.326Z,-1.80
2018-03-18T00:55:11.784Z,-1.90
2018-03-18T00:57:39.239Z,-1.90
2018-03-18T01:00:06.718Z,-1.90
2018-03-18T01:02:34.175Z,-1.90
2018-03-18T01:05:01.633Z,-1.90
2018-03-18T01:07:29.072Z,-2.00
2018-03-18T01:09:56.531Z,-2.00
2018-03-18T01:12:24.010Z,-2.00
2018-03-18T01:14:51.448Z,-2.00
2018-03-18T01:17:18.913Z,-1.90
2018-03-18T01:19:46.367Z,-2.00
2018-03-18T01:22:13.819Z,-2.10
2018-03-18T01:24:41.279Z,-2.00
2018-03-18T01:27:08.734Z,-2.00
2018-03-18T01:29:36.237Z,-1.90
2018-03-18T01:32:03.677Z,-1.90
2018-03-18T01:34:31.155Z,-1.90
2018-03-18T01:36:58.605Z,-1.90
2018-03-18T01:39:26.096Z,-2.00
2018-03-18T01:41:53.559Z,-2.00
2018-03-18T01:44:21.017Z,-2.00
2018-03-18T01:46:48.466Z,-2.00
2018-03-18T01:49:15.920Z,-2.10
2018-03-18T01:51:43.376Z,-2.10
2018-03-18T01:54:10.846Z,-2.10
2018-03-18T01:56:38.297Z,-2.10
2018-03-18T01:59:05.771Z,-2.10
2018-03-18T02:01:33.215Z,-2.30
2018-03-18T02:04:00.673Z,-2.20
2018-03-18T02:06:28.145Z,-2.30
2018-03-18T02:08:59.386Z,-2.40
2018-03-18T02:11:26.832Z,-2.30
2018-03-18T02:13:54.307Z,-2.40
2018-03-18T02:16:21.764Z,-2.30
2018-03-18T02:18:49.226Z,-2.30
2018-03-18T02:21:16.690Z,-2.30
2018-03-18T02:23:44.145Z,-2.20
2018-03-18T02:26:11.595Z,-2.30
2018-03-18T02:28:39.059Z,-2.30
2018-03-18T02:31:06.509Z,-2.40
2018-03-18T02:33:33.971Z,-2.40
2018-03-18T02:36:01.430Z,-2.40
2018-03-18T02:38:28.899Z,-2.30
2018-03-18T02:40:56.370Z,-2.40
2018-03-18T02:43:23.827Z,-2.40
2018-03-18T02:45:51.284Z,-2.40
2018-03-18T02:48:18.758Z,-2.50
2018-03-18T02:50:46.202Z,-2.40
2018-03-18T02:53:13.682Z,-2.30
2018-03-18T02:55:41.134Z,-2.30
2018-03-18T02:58:08.597Z,-2.40
2018-03-18T03:00:36.048Z,-2.40
2018-03-18T03:03:03.527Z,-2.40
2018-03-18T03:05:31.746Z,-2.40
2018-03-18T03:07:59.221Z,-2.40
2018-03-18T03:10:26.736Z,-2.50
2018-03-18T03:12:54.184Z,-2.40
2018-03-18T03:15:21.652Z,-2.50
2018-03-18T03:17:49.103Z,-2.60
2018-03-18T03:20:16.564Z,-2.60
2018-03-18T03:22:44.022Z,-2.60
2018-03-18T03:25:11.494Z,-2.50
2018-03-18T03:27:38.951Z,-2.50
2018-03-18T03:30:06.426Z,-2.40
2018-03-18T03:32:33.882Z,-2.50
2018-03-18T03:35:01.345Z,-2.50
2018-03-18T03:37:28.801Z,-2.60
2018-03-18T03:39:56.271Z,-2.60
2018-03-18T03:42:23.724Z,-2.70
2018-03-18T03:44:51.190Z,-2.60
2018-03-18T03:47:19.621Z,-2.60
2018-03-18T03:49:47.086Z,-2.60
2018-03-18T03:52:14.542Z,-2.50
2018-03-18T03:54:41.993Z,-2.70
2018-03-18T03:57:09.462Z,-2.70
2018-03-18T03:59:36.921Z,-2.70
2018-03-18T04:02:04.396Z,-2.70
2018-03-18T04:04:31.904Z,-2.70
2018-03-18T04:06:59.310Z,-2.60
2018-03-18T04:09:26.762Z,-2.60
2018-03-18T04:11:54.246Z,-2.60
2018-03-18T04:14:22.473Z,-2.60
2018-03-18T04:16:49.878Z,-2.60
2018-03-18T04:19:17.328Z,-2.60
2018-03-18T04:21:44.796Z,-2.70
2018-03-18T04:24:12.307Z,-2.80
2018-03-18T04:26:39.752Z,-2.80
2018-03-18T04:29:07.215Z,-2.80
2018-03-18T04:31:34.683Z,-2.90
2018-03-18T04:34:02.152Z,-2.90
2018-03-18T04:36:29.606Z,-2.90
2018-03-18T04:38:57.071Z,-2.90
2018-03-18T04:41:26.551Z,-3.00
2018-03-18T04:43:54.014Z,-3.00
2018-03-18T04:46:21.458Z,-3.00
2018-03-18T04:48:48.930Z,-3.00
2018-03-18T04:51:16.401Z,-3.00
2018-03-18T04:53:43.862Z,-2.90
2018-03-18T04:56:11.326Z,-2.90
2018-03-18T04:58:38.780Z,-3.00
2018-03-18T05:01:06.298Z,-3.00
2018-03-18T05:03:33.718Z,-3.00
2018-03-18T05:06:01.173Z,-3.00
2018-03-18T05:08:28.633Z,-3.00
2018-03-18T05:10:56.081Z,-2.90
2018-03-18T05:13:23.541Z,-3.00
2018-03-18T05:15:51.005Z,-3.00
2018-03-18T05:18:18.461Z,-3.00
2018-03-18T05:20:45.929Z,-3.00
2018-03-18T05:23:14.340Z,-2.90
2018-03-18T05:25:41.807Z,-3.00
2018-03-18T05:28:09.264Z,-3.00
2018-03-18T05:30:36.702Z,-3.00
2018-03-18T05:33:04.925Z,-3.00
2018-03-18T05:35:32.394Z,-3.00
2018-03-18T05:37:59.852Z,-3.00
2018-03-18T05:40:27.316Z,-3.20
2018-03-18T05:42:54.769Z,-3.10
2018-03-18T05:45:22.243Z,-3.10
2018-03-18T05:47:49.703Z,-3.10
2018-03-18T05:50:17.166Z,-3.20
2018-03-18T05:52:44.609Z,-3.20
2018-03-18T05:55:12.061Z,-3.10
2018-03-18T05:57:39.521Z,-3.20
2018-03-18T06:00:06.982Z,-3.10
2018-03-18T06:02:34.433Z,-3.00
2018-03-18T06:05:01.895Z,-3.10
2018-03-18T06:07:29.344Z,-3.10
2018-03-18T06:09:56.804Z,-3.10
2018-03-18T06:12:24.262Z,-3.10
2018-03-18T06:14:51.726Z,-3.10
2018-03-18T06:17:19.177Z,-3.00
2018-03-18T06:19:46.636Z,-3.10
2018-03-18T06:22:14.077Z,-3.00
2018-03-18T06:24:41.546Z,-2.90
2018-03-18T06:27:09.011Z,-2.90
2018-03-18T06:29:36.466Z,-2.80
2018-03-18T06:32:03.919Z,-2.90
2018-03-18T06:34:31.384Z,-2.90
2018-03-18T06:36:58.838Z,-2.80
2018-03-18T06:39:26.301Z,-2.90
2018-03-18T06:41:53.754Z,-2.90
2018-03-18T06:44:21.207Z,-2.90
2018-03-18T06:46:48.667Z,-2.90
2018-03-18T06:49:16.122Z,-2.80
2018-03-18T06:51:43.583Z,-2.70
2018-03-18T06:54:11.046Z,-2.70
2018-03-18T06:56:38.484Z,-2.80
2018-03-18T06:59:05.943Z,-2.70
2018-03-18T07:01:33.415Z,-2.60
2018-03-18T07:04:00.851Z,-2.80
2018-03-18T07:06:28.296Z,-2.70
2018-03-18T07:08:55.771Z,-2.80
2018-03-18T07:11:24.319Z,-2.70
2018-03-18T07:13:51.893Z,-2.80
2018-03-18T07:16:19.442Z,-2.70
2018-03-18T07:18:46.910Z,-2.90
2018-03-18T07:21:14.364Z,-2.80
2018-03-18T07:23:41.904Z,-2.80
2018-03-18T07:26:09.385Z,-2.70
2018-03-18T07:28:36.851Z,-2.70
2018-03-18T07:31:04.308Z,-2.80
2018-03-18T07:33:31.769Z,-2.80
2018-03-18T07:35:59.230Z,-2.80
2018-03-18T07:38:26.695Z,-2.70
2018-03-18T07:40:54.920Z,-2.60
2018-03-18T07:43:22.383Z,-2.60
2018-03-18T07:45:49.846Z,-2.60
2018-03-18T07:48:17.323Z,-2.60
2018-03-18T07:50:44.773Z,-2.50
2018-03-18T07:53:12.225Z,-2.50
2018-03-18T07:55:39.683Z,-2.30
2018-03-18T07:58:07.142Z,-2.30
2018-03-18T08:00:34.603Z,-2.20
2018-03-18T08:03:02.150Z,-2.30
2018-03-18T08:05:29.618Z,-2.20
2018-03-18T08:07:57.832Z,-2.10
2018-03-18T08:10:25.281Z,-2.20
2018-03-18T08:12:52.730Z,-2.30
2018-03-18T08:15:20.184Z,-2.30
2018-03-18T08:17:47.706Z,-2.20
2018-03-18T08:20:15.169Z,-2.20
2018-03-18T08:22:42.645Z,-2.20
2018-03-18T08:25:10.185Z,-2.20
2018-03-18T08:27:38.649Z,-2.30
2018-03-18T08:30:06.975Z,-2.40
2018-03-18T08:32:34.426Z,-2.40
2018-03-18T08:35:01.888Z,-2.50
2018-03-18T08:37:29.419Z,-2.40
2018-03-18T08:39:56.894Z,-2.40
2018-03-18T08:42:29.244Z,-2.50
2018-03-18T08:44:56.694Z,-2.50
2018-03-18T08:47:26.190Z,-2.50
2018-03-18T08:49:54.420Z,-2.40
2018-03-18T08:52:22.793Z,-2.40
2018-03-18T08:54:50.211Z,-2.40
2018-03-18T08:57:18.494Z,-2.40
2018-03-18T08:59:45.951Z,-2.40
2018-03-18T09:02:14.451Z,-2.30
2018-03-18T09:04:41.894Z,-2.20
2018-03-18T09:07:09.366Z,-2.30
2018-03-18T09:09:36.865Z,-2.20
2018-03-18T09:12:04.330Z,-2.20
2018-03-18T09:14:31.778Z,-2.10
2018-03-18T09:16:59.234Z,-2.20
2018-03-18T09:19:26.692Z,-2.10
2018-03-18T09:21:54.222Z,-2.10
2018-03-18T09:24:21.704Z,-2.00
2018-03-18T09:26:49.243Z,-2.00
2018-03-18T09:29:16.691Z,-1.90
2018-03-18T09:31:44.171Z,-1.70
2018-03-18T09:34:12.507Z,-1.80
2018-03-18T09:36:39.994Z,-1.80
2018-03-18T09:39:07.452Z,-1.60
2018-03-18T09:41:34.975Z,-1.70
2018-03-18T09:44:02.425Z,-1.80
2018-03-18T09:46:30.634Z,-1.80
2018-03-18T09:48:58.111Z,-1.80
2018-03-18T09:51:26.382Z,-1.70
2018-03-18T09:53:53.897Z,-1.60
2018-03-18T09:56:21.379Z,-1.60
2018-03-18T09:58:48.838Z,-1.50
2018-03-18T10:01:16.288Z,-1.40
2018-03-18T10:03:44.168Z,-1.50
2018-03-18T10:06:11.626Z,-1.50
2018-03-18T10:08:39.086Z,-1.60
2018-03-18T10:11:06.540Z,-1.60
2018-03-18T10:13:34.003Z,-1.50
2018-03-18T10:16:01.463Z,-1.40
2018-03-18T10:18:28.995Z,-1.40
2018-03-18T10:20:56.441Z,-1.30
2018-03-18T10:23:24.728Z,-1.10
2018-03-18T10:25:52.211Z,-1.10
2018-03-18T10:28:19.713Z,-1.10
2018-03-18T10:30:47.166Z,-1.00
2018-03-18T10:33:14.618Z,-1.10
2018-03-18T10:35:42.122Z,-1.10
2018-03-18T10:38:09.584Z,-0.90
2018-03-18T10:40:37.139Z,-0.80
2018-03-18T10:43:04.744Z,-0.80
2018-03-18T10:45:32.234Z,-0.60
2018-03-18T10:48:00.458Z,-0.10
2018-03-18T10:50:27.921Z,-0.10
2018-03-18T10:52:55.429Z,-0.40
2018-03-18T10:55:22.931Z,-0.50
2018-03-18T10:57:51.144Z,-0.20
2018-03-18T11:00:20.499Z,-0.20
2018-03-18T11:02:50.473Z,0.00
2018-03-18T11:05:17.986Z,0.00
2018-03-18T11:07:45.461Z,0.00
2018-03-18T11:10:12.890Z,0.00
2018-03-18T11:12:40.349Z,0.00
2018-03-18T11:15:07.855Z,0.30
2018-03-18T11:17:35.259Z,0.30
2018-03-18T11:20:02.693Z,0.40
2018-03-18T11:22:30.150Z,0.40
2018-03-18T11:24:57.598Z,0.60
2018-03-18T11:27:25.041Z,0.80
2018-03-18T11:29:53.281Z,1.40
2018-03-18T11:32:20.716Z,1.40
2018-03-18T11:34:48.259Z,1.60
2018-03-18T11:37:15.745Z,1.80
2018-03-18T11:39:43.211Z,1.60
2018-03-18T11:42:11.481Z,2.00
2018-03-18T11:44:38.920Z,1.90
2018-03-18T11:47:06.438Z,1.70
2018-03-18T11:49:33.892Z,1.80
2018-03-18T11:52:01.374Z,2.00
2018-03-18T11:54:30.138Z,2.00
2018-03-18T11:56:57.793Z,2.00
2018-03-18T11:59:25.581Z,1.60
2018-03-18T12:01:53.400Z,1.40
2018-03-18T12:04:20.915Z,1.40
2018-03-18T12:06:48.349Z,1.40
2018-03-18T12:09:16.570Z,1.00
2018-03-18T12:11:44.031Z,1.00
2018-03-18T12:14:11.487Z,1.00
2018-03-18T12:16:38.936Z,0.90
2018-03-18T12:19:06.372Z,1.00
2018-03-18T12:21:33.834Z,1.00
2018-03-18T12:24:01.337Z,1.10
2018-03-18T12:26:28.897Z,1.00
2018-03-18T12:28:56.343Z,1.00
2018-03-18T12:31:23.777Z,0.90
2018-03-18T12:33:51.323Z,1.00
2018-03-18T12:36:18.706Z,1.00
2018-03-18T12:38:46.198Z,1.00
2018-03-18T12:41:14.421Z,1.10
2018-03-18T12:43:41.947Z,1.00
2018-03-18T12:46:09.513Z,1.10
2018-03-18T12:48:37.749Z,1.00
2018-03-18T12:51:05.214Z,1.00
2018-03-18T12:53:32.661Z,1.10
2018-03-18T12:56:00.128Z,1.30
2018-03-18T12:58:27.575Z,1.30
2018-03-18T13:00:55.033Z,1.30
2018-03-18T13:03:22.513Z,1.40
2018-03-18T13:05:49.972Z,1.50
2018-03-18T13:08:17.412Z,1.60
2018-03-18T13:10:44.876Z,1.70
2018-03-18T13:13:12.321Z,1.80
2018-03-18T13:15:39.864Z,1.80
2018-03-18T13:18:07.292Z,1.90
2018-03-18T13:20:34.778Z,2.00
2018-03-18T13:23:02.291Z,2.10
2018-03-18T13:25:29.730Z,2.10
2018-03-18T13:27:57.183Z,2.00
2018-03-18T13:30:24.639Z,2.00
2018-03-18T13:32:52.089Z,2.00
2018-03-18T13:35:19.528Z,1.90
2018-03-18T13:37:47.000Z,1.90
2018-03-18T13:40:14.448Z,1.70
2018-03-18T13:42:53.366Z,1.60
2018-03-18T13:45:21.748Z,1.80
2018-03-18T13:47:49.223Z,1.70
2018-03-18T13:50:16.665Z,1.90
2018-03-18T13:52:44.132Z,2.00
2018-03-18T13:55:11.591Z,2.00
2018-03-18T13:57:39.054Z,1.90
2018-03-18T14:00:06.557Z,1.90
2018-03-18T14:02:34.840Z,2.10
2018-03-18T14:05:02.316Z,2.00
2018-03-18T14:07:29.762Z,2.10
2018-03-18T14:09:57.244Z,2.10
2018-03-18T14:12:24.781Z,2.10
2018-03-18T14:14:52.237Z,2.00
2018-03-18T14:17:19.700Z,2.00
2018-03-18T14:19:47.194Z,2.10
2018-03-18T14:22:14.736Z,2.20
2018-03-18T14:24:42.194Z,2.40
2018-03-18T14:27:09.656Z,2.10
2018-03-18T14:29:37.115Z,2.10
2018-03-18T14:32:04.553Z,2.20
2018-03-18T14:34:32.025Z,2.40
2018-03-18T14:36:59.474Z,2.40
2018-03-18T14:39:26.940Z,2.30
2018-03-18T14:41:54.663Z,2.00
2018-03-18T14:44:22.879Z,1.90
2018-03-18T14:46:50.398Z,1.90
2018-03-18T14:49:18.615Z,2.10
2018-03-18T14:51:46.832Z,2.10
2018-03-18T14:54:14.307Z,2.10
2018-03-18T14:56:42.525Z,2.40
2018-03-18T14:59:09.975Z,2.40
2018-03-18T15:01:37.417Z,2.20
2018-03-18T15:04:04.868Z,2.10
2018-03-18T15:06:32.326Z,2.00
2018-03-18T15:08:59.808Z,1.90
2018-03-18T15:11:28.246Z,1.90
2018-03-18T15:13:58.483Z,1.70
2018-03-18T15:16:25.925Z,1.70
2018-03-18T15:18:54.218Z,1.50
2018-03-18T15:21:21.655Z,1.50
2018-03-18T15:23:49.874Z,1.20
2018-03-18T15:26:17.331Z,1.10
2018-03-18T15:28:44.775Z,1.20
2018-03-18T15:31:12.239Z,1.20
2018-03-18T15:33:39.683Z,1.00
2018-03-18T15:36:07.136Z,1.00
2018-03-18T15:38:34.636Z,1.10
2018-03-18T15:41:02.184Z,1.00
2018-03-18T15:43:29.609Z,0.90
2018-03-18T15:45:57.054Z,0.80
2018-03-18T15:48:25.270Z,0.80
2018-03-18T15:50:52.734Z,0.80
2018-03-18T15:53:20.180Z,0.80
2018-03-18T15:55:47.616Z,0.80
2018-03-18T15:58:15.074Z,0.70
2018-03-18T16:00:42.529Z,0.70
2018-03-18T16:03:09.969Z,0.70
2018-03-18T16:05:38.271Z,0.60
2018-03-18T16:08:05.747Z,0.50
2018-03-18T16:10:35.251Z,0.60
2018-03-18T16:13:02.706Z,0.50
2018-03-18T16:15:30.160Z,0.40
2018-03-18T16:17:57.597Z,0.40
2018-03-18T16:20:25.066Z,0.40
2018-03-18T16:22:52.507Z,0.30
2018-03-18T16:25:19.960Z,0.30
2018-03-18T16:27:47.563Z,0.20
2018-03-18T16:30:27.038Z,0.20
2018-03-18T16:32:54.446Z,0.20
2018-03-18T16:35:21.888Z,0.30
2018-03-18T16:37:49.341Z,0.20
2018-03-18T16:40:23.311Z,0.30
2018-03-18T16:42:50.775Z,0.30
2018-03-18T16:45:18.221Z,0.30
2018-03-18T16:47:45.767Z,0.30
2018-03-18T16:50:14.021Z,0.10
2018-03-18T16:52:41.612Z,0.00
2018-03-18T16:55:09.048Z,0.00
2018-03-18T16:57:36.577Z,0.10
2018-03-18T17:00:03.950Z,0.00
2018-03-18T17:02:31.390Z,0.00
2018-03-18T17:04:58.837Z,0.00
2018-03-18T17:07:26.292Z,0.00
2018-03-18T17:09:54.494Z,0.10
2018-03-18T17:12:22.957Z,0.10
2018-03-18T17:14:50.395Z,0.10
2018-03-18T17:17:18.651Z,0.10
2018-03-18T17:19:46.099Z,0.10
2018-03-18T17:22:13.527Z,0.10
2018-03-18T17:24:40.985Z,0.10
2018-03-18T17:27:09.427Z,0.00
2018-03-18T17:29:37.646Z,0.00
2018-03-18T17:32:05.096Z,-0.10
2018-03-18T17:34:32.607Z,0.00
2018-03-18T17:37:00.146Z,0.00
2018-03-18T17:39:27.535Z,0.00
2018-03-18T17:41:56.799Z,-0.20
2018-03-18T17:44:36.295Z,-0.20
2018-03-18T17:47:15.680Z,-0.20
2018-03-18T17:49:54.926Z,-0.20
2018-03-18T17:52:34.228Z,-0.20
2018-03-18T17:55:13.510Z,-0.20
2018-03-18T17:57:40.955Z,-0.20
2018-03-18T18:00:08.410Z,-0.20
2018-03-18T18:02:35.866Z,-0.20
2018-03-18T18:05:03.328Z,-0.20
2018-03-18T18:07:31.552Z,-0.10
2018-03-18T18:09:59.019Z,-0.20
2018-03-18T18:12:26.481Z,-0.10
2018-03-18T18:14:53.931Z,-0.20
2018-03-18T18:17:21.380Z,-0.20
2018-03-18T18:19:49.381Z,-0.20
2018-03-18T18:22:16.842Z,-0.20
2018-03-18T18:24:44.338Z,-0.10
2018-03-18T18:27:11.774Z,-0.20
2018-03-18T18:29:39.216Z,-0.30
2018-03-18T18:32:06.676Z,-0.30
2018-03-18T18:34:34.123Z,-0.30
2018-03-18T18:37:01.584Z,-0.20
2018-03-18T18:39:29.047Z,-0.20
2018-03-18T18:41:56.550Z,-0.10
2018-03-18T18:44:23.999Z,-0.20
2018-03-18T18:46:51.514Z,-0.20
2018-03-18T18:49:18.970Z,-0.20
2018-03-18T18:51:46.435Z,-0.20
2018-03-18T18:54:13.891Z,-0.10
2018-03-18T18:56:41.393Z,-0.20
2018-03-18T18:59:08.845Z,-0.20
2018-03-18T19:01:37.155Z,-0.10
2018-03-18T19:04:04.773Z,-0.10
2018-03-18T19:06:32.308Z,-0.10
2018-03-18T19:08:59.757Z,-0.10
2018-03-18T19:11:27.210Z,-0.10
2018-03-18T19:13:54.666Z,-0.20
2018-03-18T19:16:22.130Z,-0.10
2018-03-18T19:18:49.587Z,-0.20
2018-03-18T19:21:17.036Z,-0.10
2018-03-18T19:23:44.561Z,-0.20
2018-03-18T19:26:12.018Z,-0.20
2018-03-18T19:28:39.491Z,-0.20
2018-03-18T19:31:07.956Z,-0.20
2018-03-18T19:33:35.436Z,-0.20
2018-03-18T19:36:02.857Z,-0.20
2018-03-18T19:38:30.321Z,-0.40
2018-03-18T19:40:57.823Z,-0.40
2018-03-18T19:43:25.284Z,-0.40
2018-03-18T19:45:52.750Z,-0.40
2018-03-18T19:48:20.192Z,-0.40
2018-03-18T19:50:47.641Z,-0.30
2018-03-18T19:53:15.126Z,-0.30
2018-03-18T19:55:42.648Z,-0.30
2018-03-18T19:58:10.104Z,-0.40
2018-03-18T20:00:37.570Z,-0.30
2018-03-18T20:03:05.019Z,-0.40
2018-03-18T20:05:32.485Z,-0.50
2018-03-18T20:07:59.938Z,-0.50
2018-03-18T20:10:27.391Z,-0.60
2018-03-18T20:12:54.863Z,-0.70
2018-03-18T20:15:22.319Z,-0.70
2018-03-18T20:17:49.770Z,-0.70
2018-03-18T20:20:17.225Z,-0.60
2018-03-18T20:22:44.876Z,-0.60
2018-03-18T20:25:12.414Z,-0.60
2018-03-18T20:27:40.062Z,-0.60
2018-03-18T20:30:08.353Z,-0.80
2018-03-18T20:32:35.806Z,-0.90
2018-03-18T20:35:04.113Z,-0.80
2018-03-18T20:37:31.544Z,-0.80
2018-03-18T20:39:59.007Z,-0.90
2018-03-18T20:42:26.473Z,-1.00
2018-03-18T20:44:53.915Z,-1.00
2018-03-18T20:47:21.496Z,-1.00
2018-03-18T20:49:48.942Z,-1.00
2018-03-18T20:52:16.409Z,-1.10
2018-03-18T20:54:43.849Z,-1.00
2018-03-18T20:57:11.393Z,-1.00
2018-03-18T20:59:39.607Z,-0.90
2018-03-18T21:02:07.054Z,-0.90
2018-03-18T21:04:34.505Z,-0.90
2018-03-18T21:07:01.974Z,-0.90
2018-03-18T21:09:29.434Z,-0.90
2018-03-18T21:11:57.300Z,-0.80
2018-03-18T21:14:24.746Z,-0.70
2018-03-18T21:16:52.461Z,-0.70
2018-03-18T21:19:19.904Z,-0.70
2018-03-18T21:21:47.365Z,-0.70
2018-03-18T21:24:14.855Z,-0.70
2018-03-18T21:26:43.088Z,-0.70
2018-03-18T21:29:10.550Z,-0.70
2018-03-18T21:31:38.087Z,-0.80
2018-03-18T21:34:05.548Z,-0.70
2018-03-18T21:36:33.012Z,-0.80
2018-03-18T21:39:00.567Z,-0.80
2018-03-18T21:41:28.025Z,-0.80
2018-03-18T21:43:55.495Z,-0.80
2018-03-18T21:46:22.956Z,-0.80
2018-03-18T21:48:50.417Z,-0.90
2018-03-18T21:51:17.868Z,-0.80
2018-03-18T21:53:45.310Z,-0.80
2018-03-18T21:56:12.825Z,-0.80
2018-03-18T21:58:41.034Z,-0.80
2018-03-18T22:01:08.533Z,-0.80
2018-03-18T22:03:35.970Z,-0.90
2018-03-18T22:06:03.440Z,-0.90
2018-03-18T22:08:30.879Z,-0.90
2018-03-18T22:10:58.340Z,-0.90
2018-03-18T22:13:25.799Z,-1.00
2018-03-18T22:15:53.251Z,-1.00
2018-03-18T22:18:20.824Z,-0.90
2018-03-18T22:20:48.167Z,-0.90
2018-03-18T22:23:15.627Z,-1.00
2018-03-18T22:25:43.078Z,-1.10
2018-03-18T22:28:10.532Z,-1.00
2018-03-18T22:30:37.995Z,-0.90
2018-03-18T22:33:05.436Z,-0.90
2018-03-18T22:35:32.903Z,-0.90
2018-03-18T22:38:00.381Z,-0.80
2018-03-18T22:40:27.842Z,-0.80
2018-03-18T22:42:55.312Z,-0.80
2018-03-18T22:45:22.756Z,-0.90
2018-03-18T22:47:50.209Z,-0.90
2018-03-18T22:50:17.672Z,-0.80
2018-03-18T22:52:45.135Z,-0.90
2018-03-18T22:55:12.593Z,-0.90
2018-03-18T22:57:40.051Z,-0.90
2018-03-18T23:00:07.515Z,-0.90
2018-03-18T23:02:34.977Z,-0.90
2018-03-18T23:05:02.470Z,-1.00
2018-03-18T23:07:29.938Z,-1.10
2018-03-18T23:09:57.396Z,-1.00
2018-03-18T23:12:24.872Z,-1.20
2018-03-18T23:14:52.325Z,-1.20
2018-03-18T23:17:19.787Z,-1.20
2018-03-18T23:19:47.240Z,-1.20
2018-03-18T23:22:14.695Z,-1.20
2018-03-18T23:24:42.154Z,-1.10
2018-03-18T23:27:09.609Z,-1.10
2018-03-18T23:29:37.059Z,-1.10
2018-03-18T23:32:04.518Z,-1.00
2018-03-18T23:34:31.971Z,-1.20
2018-03-18T23:36:59.454Z,-1.20
2018-03-18T23:39:26.909Z,-1.20
2018-03-18T23:41:54.366Z,-1.10
2018-03-18T23:44:21.816Z,-1.10
2018-03-18T23:46:49.275Z,-1.00
2018-03-18T23:49:16.730Z,-1.10
2018-03-18T23:51:44.201Z,-1.20
2018-03-18T23:54:11.655Z,-1.20
2018-03-18T23:56:39.115Z,-1.30
2018-03-18T23:59:06.576Z,-1.30
